createdAt,value
2022-11-08T00:01:26.640Z,100879.41
2022-11-08T00:04:28.290Z,100879.34
2022-11-08T00:07:29.952Z,100870.19
2022-11-08T00:10:31.551Z,100872.94
2022-11-08T00:13:33.089Z,100868.31
2022-11-08T00:16:34.784Z,100861.50
2022-11-08T00:19:36.310Z,100864.19
2022-11-08T00:22:37.877Z,100861.63
2022-11-08T00:25:39.404Z,100859.19
2022-11-08T00:28:41.004Z,100863.59
2022-11-08T00:31:43.656Z,100860.31
2022-11-08T00:34:45.887Z,100857.78
2022-11-08T00:37:47.418Z,100857.72
2022-11-08T00:40:48.968Z,100852.19
2022-11-08T00:43:50.498Z,100858.78
2022-11-08T00:46:52.846Z,100855.38
2022-11-08T00:49:54.372Z,100858.13
2022-11-08T00:52:55.872Z,100860.31
2022-11-08T00:56:02.405Z,100849.75
2022-11-08T00:59:04.082Z,100842.03
2022-11-08T01:02:05.697Z,100844.56
2022-11-08T01:05:07.602Z,100836.75
2022-11-08T01:08:09.986Z,100823.59
2022-11-08T01:11:15.530Z,100831.53
2022-11-08T01:14:16.951Z,100825.50
2022-11-08T01:17:18.397Z,100832.50
2022-11-08T01:20:20.017Z,100816.50
2022-11-08T01:23:21.447Z,100809.69
2022-11-08T01:26:26.289Z,100809.81
2022-11-08T01:29:27.705Z,100807.97
2022-11-08T01:32:29.160Z,100794.91
2022-11-08T01:35:32.212Z,100794.19
2022-11-08T01:38:33.983Z,100790.75
2022-11-08T01:41:35.403Z,100785.81
2022-11-08T01:45:04.708Z,100785.09
2022-11-08T01:48:06.289Z,100781.03
2022-11-08T01:51:11.667Z,100779.25
2022-11-08T01:54:20.376Z,100773.19
2022-11-08T01:57:27.905Z,100760.75
2022-11-08T02:00:29.829Z,100767.94
2022-11-08T02:03:34.358Z,100758.09
2022-11-08T02:06:38.639Z,100761.56
2022-11-08T02:09:42.278Z,100759.97
2022-11-08T02:12:43.791Z,100757.22
2022-11-08T02:15:45.372Z,100763.44
2022-11-08T02:18:48.597Z,100748.47
2022-11-08T02:21:55.879Z,100751.25
2022-11-08T02:24:57.623Z,100755.91
2022-11-08T02:27:59.019Z,100743.63
2022-11-08T02:31:00.434Z,100731.47
2022-11-08T02:34:01.917Z,100736.88
2022-11-08T02:37:04.304Z,100732.59
2022-11-08T02:40:06.383Z,100721.16
2022-11-08T02:43:07.769Z,100723.94
2022-11-08T02:46:09.574Z,100724.25
2022-11-08T02:49:11.008Z,100728.66
2022-11-08T02:52:12.717Z,100723.16
2022-11-08T02:55:14.181Z,100718.00
2022-11-08T02:58:16.309Z,100698.75
2022-11-08T03:01:18.096Z,100701.69
2022-11-08T03:04:19.557Z,100688.53
2022-11-08T03:07:24.821Z,100689.47
2022-11-08T03:10:27.821Z,100685.13
2022-11-08T03:13:29.276Z,100676.03
2022-11-08T03:16:30.699Z,100670.81
2022-11-08T03:19:32.144Z,100666.38
2022-11-08T03:22:33.565Z,100652.25
2022-11-08T03:25:34.986Z,100640.13
2022-11-08T03:28:36.442Z,100650.78
2022-11-08T03:31:37.859Z,100639.34
2022-11-08T03:34:39.350Z,100632.47
2022-11-08T03:37:40.851Z,100619.31
2022-11-08T03:40:42.691Z,100620.28
2022-11-08T03:43:44.088Z,100606.22
2022-11-08T03:46:45.467Z,100600.06
2022-11-08T03:49:46.894Z,100601.97
2022-11-08T03:52:53.213Z,100599.13
2022-11-08T03:55:54.868Z,100595.03
2022-11-08T03:58:56.330Z,100595.81
2022-11-08T04:01:57.858Z,100590.25
2022-11-08T04:04:59.374Z,100583.75
2022-11-08T04:08:01.538Z,100586.94
2022-11-08T04:11:02.942Z,100592.38
2022-11-08T04:14:04.385Z,100576.56
2022-11-08T04:17:05.810Z,100584.44
2022-11-08T04:20:08.661Z,100579.69
2022-11-08T04:23:10.077Z,100582.47
2022-11-08T04:26:11.702Z,100576.31
2022-11-08T04:29:13.199Z,100574.63
2022-11-08T04:32:14.608Z,100567.63
2022-11-08T04:35:16.020Z,100572.06
2022-11-08T04:38:18.416Z,100554.59
2022-11-08T04:41:24.614Z,100553.88
2022-11-08T04:44:26.009Z,100546.06
2022-11-08T04:47:28.057Z,100535.72
2022-11-08T04:50:29.509Z,100543.88
2022-11-08T04:53:31.119Z,100539.41
2022-11-08T04:56:32.880Z,100529.69
2022-11-08T04:59:34.313Z,100534.94
2022-11-08T05:02:35.842Z,100524.22
2022-11-08T05:05:37.328Z,100517.91
2022-11-08T05:08:38.968Z,100525.81
2022-11-08T05:11:40.396Z,100520.56
2022-11-08T05:14:41.824Z,100519.53
2022-11-08T05:17:43.241Z,100513.94
2022-11-08T05:20:44.674Z,100513.84
2022-11-08T05:23:47.543Z,100511.06
2022-11-08T05:26:48.969Z,100504.41
2022-11-08T05:29:50.363Z,100500.19
2022-11-08T05:32:51.815Z,100493.34
2022-11-08T05:35:53.283Z,100497.19
2022-11-08T05:38:55.454Z,100492.97
2022-11-08T05:41:56.882Z,100492.97
2022-11-08T05:44:58.309Z,100483.34
2022-11-08T05:47:59.708Z,100478.84
2022-11-08T05:51:01.636Z,100480.56
2022-11-08T05:54:03.088Z,100485.09
2022-11-08T05:57:04.500Z,100478.06
2022-11-08T06:00:06.552Z,100480.38
2022-11-08T06:03:13.057Z,100472.34
2022-11-08T06:06:17.794Z,100466.16
2022-11-08T06:09:19.256Z,100464.53
2022-11-08T06:12:20.709Z,100467.97
2022-11-08T06:15:22.122Z,100460.78
2022-11-08T06:18:23.534Z,100454.50
2022-11-08T06:21:24.941Z,100458.97
2022-11-08T06:24:26.378Z,100451.00
2022-11-08T06:27:28.102Z,100450.19
2022-11-08T06:30:29.703Z,100450.94
2022-11-08T06:33:31.903Z,100457.13
2022-11-08T06:36:33.326Z,100465.03
2022-11-08T06:39:34.760Z,100460.56
2022-11-08T06:42:36.156Z,100457.09
2022-11-08T06:45:38.257Z,100456.81
2022-11-08T06:48:39.660Z,100446.38
2022-11-08T06:51:41.086Z,100468.66
2022-11-08T06:54:42.491Z,100451.19
2022-11-08T06:57:43.913Z,100442.22
2022-11-08T07:00:45.325Z,100451.97
2022-11-08T07:03:46.866Z,100438.16
2022-11-08T07:06:48.325Z,100438.09
2022-11-08T07:09:49.743Z,100436.28
2022-11-08T07:12:59.777Z,100435.38
2022-11-08T07:16:01.892Z,100430.03
2022-11-08T07:19:03.337Z,100431.84
2022-11-08T07:22:04.780Z,100425.22
2022-11-08T07:25:06.859Z,100413.56
2022-11-08T07:28:14.150Z,100423.94
2022-11-08T07:31:15.749Z,100430.78
2022-11-08T07:34:17.152Z,100438.25
2022-11-08T07:37:18.597Z,100441.31
2022-11-08T07:40:20.464Z,100427.81
2022-11-08T07:43:21.984Z,100432.88
2022-11-08T07:46:23.679Z,100443.34
2022-11-08T07:49:25.101Z,100447.41
2022-11-08T07:52:26.745Z,100439.19
2022-11-08T07:55:28.180Z,100453.63
2022-11-08T07:58:29.563Z,100451.63
2022-11-08T08:01:31.021Z,100445.13
2022-11-08T08:04:32.602Z,100435.44
2022-11-08T08:07:37.698Z,100451.91
2022-11-08T08:10:40.150Z,100442.22
2022-11-08T08:13:41.592Z,100439.47
2022-11-08T08:16:43.021Z,100443.66
2022-11-08T08:19:44.464Z,100457.69
2022-11-08T08:22:50.736Z,100452.13
2022-11-08T08:25:52.590Z,100451.06
2022-11-08T08:28:54.285Z,100452.03
2022-11-08T08:31:55.886Z,100455.22
2022-11-08T08:34:57.426Z,100436.47
2022-11-08T08:38:00.024Z,100426.84
2022-11-08T08:41:02.114Z,100436.34
2022-11-08T08:44:03.692Z,100434.28
2022-11-08T08:47:05.120Z,100437.72
2022-11-08T08:50:06.861Z,100434.44
2022-11-08T08:53:08.316Z,100438.28
2022-11-08T08:56:09.869Z,100427.72
2022-11-08T09:02:32.694Z,100424.72
2022-11-08T09:05:35.013Z,100413.97
2022-11-08T09:08:36.474Z,100428.75
2022-11-08T09:11:37.996Z,100424.44
2022-11-08T09:14:39.445Z,100416.34
2022-11-08T09:17:40.878Z,100436.44
2022-11-08T09:20:42.338Z,100442.09
2022-11-08T09:23:43.751Z,100440.53
2022-11-08T09:26:45.305Z,100429.72
2022-11-08T09:29:46.720Z,100446.50
2022-11-08T09:33:03.942Z,100442.81
2022-11-08T09:36:07.686Z,100443.31
2022-11-08T09:39:09.097Z,100438.75
2022-11-08T09:42:29.029Z,100421.53
2022-11-08T09:45:43.219Z,100444.09
2022-11-08T09:48:45.513Z,100429.78
2022-11-08T09:51:48.842Z,100425.50
2022-11-08T09:54:53.871Z,100431.63
2022-11-08T09:57:58.244Z,100433.00
2022-11-08T10:00:59.908Z,100431.13
2022-11-08T10:04:07.981Z,100427.91
2022-11-08T10:07:32.330Z,100437.00
2022-11-08T10:10:39.697Z,100442.69
2022-11-08T10:13:56.865Z,100438.25
2022-11-08T10:17:15.031Z,100440.63
2022-11-08T10:20:32.704Z,100424.97
2022-11-08T10:23:54.716Z,100430.53
2022-11-08T10:26:58.876Z,100443.47
2022-11-08T10:30:02.045Z,100430.06
2022-11-08T10:33:21.952Z,100422.72
2022-11-08T10:36:29.411Z,100436.81
2022-11-08T10:39:39.025Z,100438.28
2022-11-08T10:42:44.996Z,100438.91
2022-11-08T10:45:46.440Z,100438.44
2022-11-08T10:48:47.946Z,100428.66
2022-11-08T10:51:54.694Z,100442.28
2022-11-08T10:54:58.554Z,100444.22
2022-11-08T10:58:00.338Z,100444.44
2022-11-08T11:01:04.766Z,100445.63
2022-11-08T11:04:26.358Z,100438.19
2022-11-08T11:07:35.823Z,100432.53
2022-11-08T11:10:41.395Z,100432.78
2022-11-08T11:13:42.803Z,100446.22
2022-11-08T11:17:05.351Z,100438.56
2022-11-08T11:20:19.050Z,100430.00
2022-11-08T11:23:20.550Z,100421.19
2022-11-08T11:26:40.904Z,100433.41
2022-11-08T11:29:42.345Z,100435.69
2022-11-08T11:32:58.139Z,100430.78
2022-11-08T11:36:15.379Z,100436.22
2022-11-08T11:39:24.911Z,100438.78
2022-11-08T11:42:47.009Z,100427.50
2022-11-08T11:45:58.356Z,100426.06
2022-11-08T11:49:13.125Z,100421.81
2022-11-08T11:52:17.465Z,100413.59
2022-11-08T11:55:20.138Z,100416.16
2022-11-08T11:58:49.423Z,100414.25
2022-11-08T12:02:05.843Z,100412.56
2022-11-08T12:05:39.535Z,100421.88
2022-11-08T12:08:40.898Z,100413.09
2022-11-08T12:12:01.383Z,100410.38
2022-11-08T12:15:23.195Z,100416.00
2022-11-08T12:18:49.435Z,100409.28
2022-11-08T12:22:08.271Z,100408.72
2022-11-08T12:25:40.480Z,100414.09
2022-11-08T12:28:54.171Z,100401.53
2022-11-08T12:32:35.403Z,100420.19
2022-11-08T12:35:50.571Z,100413.81
2022-11-08T12:39:10.281Z,100416.47
2022-11-08T12:42:14.696Z,100414.75
2022-11-08T12:45:35.097Z,100402.13
2022-11-08T12:48:52.581Z,100409.28
2022-11-08T12:52:16.082Z,100408.66
2022-11-08T12:55:24.369Z,100405.78
2022-11-08T12:58:34.580Z,100406.63
2022-11-08T13:01:36.823Z,100394.03
2022-11-08T13:04:44.088Z,100392.19
2022-11-08T13:07:59.047Z,100386.50
2022-11-08T13:11:05.688Z,100391.94
2022-11-08T13:14:14.270Z,100387.91
2022-11-08T13:17:24.608Z,100390.31
2022-11-08T13:20:44.238Z,100378.63
2022-11-08T13:23:45.716Z,100382.97
2022-11-08T13:26:47.253Z,100372.75
2022-11-08T13:29:50.087Z,100373.66
2022-11-08T13:33:06.853Z,100375.25
2022-11-08T13:37:00.971Z,100379.75
2022-11-08T13:40:10.810Z,100377.44
2022-11-08T13:43:23.609Z,100379.75
2022-11-08T13:46:24.972Z,100374.44
2022-11-08T13:49:26.442Z,100381.44
2022-11-08T13:53:01.142Z,100368.03
2022-11-08T13:56:05.708Z,100374.25
2022-11-08T13:59:32.186Z,100365.16
2022-11-08T14:02:34.233Z,100369.75
2022-11-08T14:05:46.447Z,100362.06
2022-11-08T14:08:54.559Z,100367.28
2022-11-08T14:12:13.422Z,100369.38
2022-11-08T14:15:44.691Z,100368.63
2022-11-08T14:18:46.111Z,100362.44
2022-11-08T14:21:50.512Z,100362.56
2022-11-08T14:24:54.443Z,100364.25
2022-11-08T14:27:57.095Z,100368.44
2022-11-08T14:31:00.325Z,100366.00
2022-11-08T14:34:02.098Z,100365.19
2022-11-08T14:37:05.936Z,100363.59
2022-11-08T14:40:15.745Z,100371.09
2022-11-08T14:43:18.362Z,100358.53
2022-11-08T14:46:36.283Z,100355.97
2022-11-08T14:49:37.682Z,100363.13
2022-11-08T14:52:39.182Z,100370.16
2022-11-08T14:55:40.726Z,100361.84
2022-11-08T14:58:42.791Z,100368.16
2022-11-08T15:01:47.645Z,100355.84
2022-11-08T15:04:49.857Z,100357.69
2022-11-08T15:07:51.444Z,100359.69
2022-11-08T15:11:03.163Z,100358.66
2022-11-08T15:14:07.998Z,100359.91
2022-11-08T15:17:38.951Z,100352.28
2022-11-08T15:20:52.451Z,100356.06
2022-11-08T15:24:10.662Z,100349.25
2022-11-08T15:27:12.036Z,100350.31
2022-11-08T15:30:16.389Z,100356.63
2022-11-08T15:33:23.360Z,100358.03
2022-11-08T15:36:36.498Z,100364.69
2022-11-08T15:39:40.835Z,100350.44
2022-11-08T15:42:50.980Z,100356.63
2022-11-08T15:45:53.460Z,100357.81
2022-11-08T15:48:57.168Z,100356.50
2022-11-08T15:51:58.604Z,100352.47
2022-11-08T15:55:00.044Z,100361.63
2022-11-08T15:58:01.569Z,100350.44
2022-11-08T16:01:04.780Z,100345.69
2022-11-08T16:04:11.608Z,100343.84
2022-11-08T16:07:13.109Z,100350.53
2022-11-08T16:10:16.862Z,100341.34
2022-11-08T16:13:27.650Z,100343.50
2022-11-08T16:16:34.049Z,100333.34
2022-11-08T16:19:36.403Z,100340.34
2022-11-08T16:22:37.787Z,100335.44
2022-11-08T16:25:50.238Z,100348.75
2022-11-08T16:28:51.692Z,100346.34
2022-11-08T16:31:53.125Z,100343.69
2022-11-08T16:34:54.525Z,100338.19
2022-11-08T16:37:55.949Z,100338.78
2022-11-08T16:40:57.359Z,100334.00
2022-11-08T16:43:58.794Z,100334.31
2022-11-08T16:47:00.196Z,100335.09
2022-11-08T16:50:01.649Z,100331.41
2022-11-08T16:53:03.051Z,100323.97
2022-11-08T16:56:04.552Z,100318.03
2022-11-08T16:59:05.985Z,100312.75
2022-11-08T17:02:34.512Z,100312.59
2022-11-08T17:05:35.919Z,100318.06
2022-11-08T17:08:37.348Z,100315.88
2022-11-08T17:11:38.992Z,100318.53
2022-11-08T17:14:40.378Z,100318.69
2022-11-08T17:17:42.616Z,100319.63
2022-11-08T17:20:44.089Z,100321.59
2022-11-08T17:23:45.540Z,100315.69
2022-11-08T17:26:46.980Z,100326.97
2022-11-08T17:29:48.639Z,100319.50
2022-11-08T17:32:50.232Z,100325.53
2022-11-08T17:35:51.685Z,100319.25
2022-11-08T17:38:53.126Z,100338.94
2022-11-08T17:41:54.535Z,100336.19
2022-11-08T17:44:55.967Z,100334.34
2022-11-08T17:47:57.394Z,100341.63
2022-11-08T17:50:59.669Z,100338.28
2022-11-08T17:54:01.082Z,100337.56
2022-11-08T17:57:03.982Z,100334.94
2022-11-08T18:00:10.680Z,100338.28
2022-11-08T18:03:13.972Z,100333.84
2022-11-08T18:06:15.401Z,100336.56
2022-11-08T18:09:16.997Z,100334.00
2022-11-08T18:12:18.472Z,100335.22
2022-11-08T18:15:19.888Z,100331.88
2022-11-08T18:18:21.385Z,100326.97
2022-11-08T18:21:23.114Z,100338.38
2022-11-08T18:24:24.516Z,100338.28
2022-11-08T18:27:25.936Z,100334.91
2022-11-08T18:30:27.432Z,100341.78
2022-11-08T18:33:29.212Z,100333.25
2022-11-08T18:36:30.861Z,100335.72
2022-11-08T18:39:32.272Z,100337.19
2022-11-08T18:42:33.748Z,100336.66
2022-11-08T18:45:35.262Z,100340.00
2022-11-08T18:48:37.316Z,100342.13
2022-11-08T18:51:38.812Z,100328.13
2022-11-08T18:54:41.393Z,100337.63
2022-11-08T18:57:42.925Z,100341.94
2022-11-08T19:00:44.351Z,100341.19
2022-11-08T19:03:45.849Z,100336.38
2022-11-08T19:06:51.621Z,100337.38
2022-11-08T19:09:55.968Z,100334.81
2022-11-08T19:12:57.651Z,100329.56
2022-11-08T19:16:13.717Z,100341.47
2022-11-08T19:19:15.132Z,100330.88
2022-11-08T19:22:16.564Z,100330.94
2022-11-08T19:25:17.982Z,100332.78
2022-11-08T19:28:19.414Z,100339.16
2022-11-08T19:31:22.921Z,100326.56
2022-11-08T19:34:24.324Z,100334.06
2022-11-08T19:37:25.719Z,100338.81
2022-11-08T19:40:31.967Z,100338.69
2022-11-08T19:43:34.668Z,100337.09
2022-11-08T19:46:36.203Z,100344.38
2022-11-08T19:49:37.647Z,100350.81
2022-11-08T19:52:40.072Z,100354.16
2022-11-08T19:55:41.500Z,100356.06
2022-11-08T19:58:43.532Z,100360.44
2022-11-08T20:01:45.105Z,100361.88
2022-11-08T20:04:46.603Z,100362.16
2022-11-08T20:07:48.055Z,100354.66
2022-11-08T20:10:49.478Z,100359.88
2022-11-08T20:13:51.396Z,100366.06
2022-11-08T20:16:53.770Z,100363.13
2022-11-08T20:19:55.365Z,100364.72
2022-11-08T20:22:57.302Z,100366.19
2022-11-08T20:26:04.377Z,100366.19
2022-11-08T20:29:06.284Z,100376.00
2022-11-08T20:32:07.762Z,100372.88
2022-11-08T20:35:09.641Z,100375.31
2022-11-08T20:38:11.154Z,100376.91
2022-11-08T20:41:15.289Z,100374.06
2022-11-08T20:44:16.616Z,100381.53
2022-11-08T20:47:19.126Z,100378.19
2022-11-08T20:50:20.611Z,100381.94
2022-11-08T20:53:22.018Z,100387.22
2022-11-08T20:56:24.727Z,100390.97
2022-11-08T20:59:26.441Z,100392.66
2022-11-08T21:02:33.083Z,100401.19
2022-11-08T21:05:34.685Z,100385.22
2022-11-08T21:11:58.634Z,100393.94
2022-11-08T21:15:00.037Z,100394.09
2022-11-08T21:18:01.485Z,100391.66
2022-11-08T21:21:02.830Z,100385.38
2022-11-08T21:24:04.413Z,100382.53
2022-11-08T21:27:05.853Z,100389.06
2022-11-08T21:30:08.013Z,100395.41
2022-11-08T21:33:09.450Z,100397.41
2022-11-08T21:36:11.173Z,100398.31
2022-11-08T21:39:12.748Z,100404.34
2022-11-08T21:42:14.275Z,100403.81
2022-11-08T21:45:15.862Z,100401.34
2022-11-08T21:48:17.643Z,100405.63
2022-11-08T21:51:19.389Z,100410.94
2022-11-08T21:54:20.878Z,100416.22
2022-11-08T21:57:22.330Z,100415.38
2022-11-08T22:00:23.759Z,100412.75
2022-11-08T22:03:25.193Z,100413.59
2022-11-08T22:06:27.889Z,100417.78
2022-11-08T22:09:29.544Z,100411.31
2022-11-08T22:12:31.231Z,100416.88
2022-11-08T22:15:32.691Z,100405.81
2022-11-08T22:21:55.564Z,100409.09
2022-11-08T22:24:56.999Z,100403.88
2022-11-08T22:27:58.433Z,100394.75
2022-11-08T22:30:59.860Z,100402.53
2022-11-08T22:34:01.430Z,100393.75
2022-11-08T22:37:03.003Z,100389.47
2022-11-08T22:40:05.304Z,100406.25
2022-11-08T22:43:06.970Z,100414.19
2022-11-08T22:46:08.425Z,100406.66
2022-11-08T22:49:10.804Z,100406.28
2022-11-08T22:52:12.274Z,100410.44
2022-11-08T22:55:13.702Z,100416.34
2022-11-08T22:58:15.135Z,100424.97
2022-11-08T23:01:16.620Z,100416.31
2022-11-08T23:04:18.027Z,100428.66
2022-11-08T23:07:19.512Z,100414.38
2022-11-08T23:10:20.968Z,100417.41
2022-11-08T23:13:22.429Z,100421.66
2022-11-08T23:16:25.098Z,100408.28
2022-11-08T23:19:26.568Z,100407.47
2022-11-08T23:22:28.009Z,100416.28
2022-11-08T23:25:29.568Z,100414.31
2022-11-08T23:28:31.037Z,100415.16
2022-11-08T23:31:32.531Z,100408.56
2022-11-08T23:34:33.940Z,100401.47
2022-11-08T23:37:35.386Z,100402.72
2022-11-08T23:40:36.840Z,100414.22
2022-11-08T23:43:38.234Z,100412.16
2022-11-08T23:46:40.278Z,100435.22
2022-11-08T23:49:41.672Z,100430.38
2022-11-08T23:52:43.063Z,100422.31
2022-11-08T23:55:44.572Z,100425.47
2022-11-08T23:58:45.976Z,100440.50
